Terminal Aerodrome Forecast
Issued by NWS Melbourne, FL

Home | Current Version | Previous Version | Text Only | Print | Product List | Glossary On
Versions: 1 2 3 4 5 6 7 8 9 10 11 12 13
000
FTUS42 KMLB 050536
TAFVRB
TAF
KVRB 050536Z 0506/0606 29003KT P6SM FEW040 SCT200
     FM051500 04006KT P6SM VCSH SCT030
     FM051700 06009KT P6SM VCTS SCT040CB SCT070
      TEMPO 0517/0521 TS BKN040CB BKN080
     FM052200 04005KT P6SM SCT040 BKN250
     FM060400 05002KT P6SM SCT050 SCT250=

USA.gov is the U.S. government's official web portal to all federal, state and local government web resources and services.